Airport ID:7S0
Update Time (UTC):15/08/2022 15:58
Wind Speed (Knots):1
Wind Direction (Magnetic):360
Temperature (°C):21.3
Dew Point (°C):8.2
Humidity (%):40
Altimeter (inHg):30.13
Density Altitude (Feet):04400
Visibility (Miles):10
Clouds (Hundreds of feet):CLR
Present Weather:
METAR:METAR 7S0 151555Z AUTO 00000KT 10SM CLR 21/08 A3013 RMK A01

The data displayed is for advisory purposes only and is not to be used for flight planning or operations.